Time;durP1;ratioP1;P1;durP2;ratioP2;P2;SDS_P1;SDS_P2;PMS_P1;PMS_P2;Temp;Humidity;BMP_temperature;BMP_pressure;BME280_temperature;BME280_humidity;BME280_pressure;Samples;Min_cycle;Max_cycle;Signal;HPM_P1;HPM_P2
2022/04/17 00:00:50;;;;;;;0.30;0.20;;;9.40;59.80;;;9.70;nan;102034.34;4990248;28;20673;-66
2022/04/17 00:03:17;;;;;;;0.30;0.30;;;9.30;60.20;;;9.76;nan;102040.13;4986244;28;20671;-66
2022/04/17 00:05:44;;;;;;;0.30;0.20;;;9.30;60.30;;;9.76;nan;102039.25;5030187;28;20632;-66
2022/04/17 00:08:11;;;;;;;0.30;0.20;;;9.30;60.80;;;9.74;nan;102030.66;4991630;28;20641;-66
2022/04/17 00:10:38;;;;;;;0.30;0.30;;;9.30;60.70;;;9.72;nan;102033.38;5010670;28;20764;-65
2022/04/17 00:13:05;;;;;;;0.30;0.30;;;9.20;61.00;;;9.72;nan;102030.75;4994327;28;20635;-66
2022/04/17 00:15:32;;;;;;;0.30;0.30;;;9.20;61.30;;;9.72;nan;102016.88;4990875;28;20638;-66
2022/04/17 00:17:59;;;;;;;0.20;0.20;;;9.20;61.50;;;9.70;nan;102016.09;5016545;28;20656;-66
2022/04/17 00:20:26;;;;;;;0.20;0.20;;;9.20;61.90;;;9.65;nan;102018.91;5004947;28;21026;-66
2022/04/17 00:22:53;;;;;;;0.30;0.20;;;9.10;62.00;;;9.63;nan;102012.06;4989665;28;21246;-66
2022/04/17 00:25:21;;;;;;;0.30;0.20;;;9.10;62.40;;;9.44;nan;102017.28;4995178;28;20664;-66
2022/04/17 00:27:48;;;;;;;0.30;0.20;;;9.00;62.60;;;9.51;nan;102015.25;4991271;28;20617;-66
2022/04/17 00:30:15;;;;;;;0.30;0.30;;;9.00;62.90;;;9.55;nan;102012.44;5006061;28;24453;-66
2022/04/17 00:32:43;;;;;;;0.20;0.20;;;9.00;63.00;;;9.54;nan;102010.72;4989828;28;20210;-66
2022/04/17 00:35:10;;;;;;;0.30;0.30;;;9.00;62.90;;;9.58;nan;102008.84;4997463;28;24453;-66
2022/04/17 00:37:37;;;;;;;0.30;0.30;;;9.10;63.20;;;9.67;nan;102008.44;4998916;28;25027;-66
2022/04/17 00:40:07;;;;;;;0.30;0.30;;;9.20;63.20;;;9.70;nan;102003.06;5001747;28;24521;-66
2022/04/17 00:42:35;;;;;;;0.40;0.30;;;9.20;63.10;;;9.72;nan;101993.41;4990172;28;24851;-65
2022/04/17 00:45:02;;;;;;;0.40;0.30;;;9.20;62.80;;;9.77;nan;101994.06;4989953;28;24460;-66
2022/04/17 00:47:29;;;;;;;0.40;0.30;;;9.30;63.10;;;9.76;nan;101995.81;5011855;28;24996;-66
2022/04/17 00:50:21;;;;;;;0.70;0.70;;;9.30;63.00;;;9.76;nan;101997.56;5008609;28;24865;-64
2022/04/17 00:52:48;;;;;;;0.40;0.40;;;9.20;63.10;;;9.72;nan;101993.41;4932460;29;20267;-70
2022/04/17 00:55:16;;;;;;;0.30;0.23;;;9.20;63.10;;;9.69;nan;101991.78;4946731;28;20631;-70
2022/04/17 00:57:43;;;;;;;0.30;0.30;;;9.20;63.20;;;9.69;nan;101998.78;4964878;28;20632;-67
2022/04/17 01:00:11;;;;;;;1.07;0.70;;;9.20;63.30;;;9.64;nan;101998.16;4934279;29;20616;-70
2022/04/17 01:02:38;;;;;;;0.30;0.30;;;9.10;63.60;;;9.61;nan;101991.31;4950247;29;21059;-70
2022/04/17 01:05:06;;;;;;;0.30;0.20;;;9.10;63.80;;;9.56;nan;101989.84;4949556;29;20644;-67
2022/04/17 01:07:33;;;;;;;0.30;0.20;;;9.00;64.20;;;9.56;nan;101988.06;4946440;28;20640;-70
2022/04/17 01:10:02;;;;;;;0.30;0.20;;;9.00;64.50;;;9.60;nan;101986.19;4950073;28;20639;-69
2022/04/17 01:12:30;;;;;;;0.30;0.27;;;9.10;64.10;;;9.61;nan;101986.09;4946427;29;20632;-70
2022/04/17 01:14:58;;;;;;;0.20;0.20;;;9.10;64.40;;;9.61;nan;101986.09;4948376;29;21047;-70
2022/04/17 01:17:25;;;;;;;0.20;0.20;;;9.10;64.70;;;9.53;nan;101974.34;4939132;29;20668;-70
2022/04/17 01:19:52;;;;;;;0.30;0.20;;;9.00;65.00;;;9.51;nan;101978.78;4947209;28;20964;-69
2022/04/17 01:22:19;;;;;;;0.40;0.40;;;9.00;65.40;;;9.47;nan;101978.09;4948251;28;20684;-72
2022/04/17 01:27:32;;;;;;;0.20;0.20;;;8.90;65.60;;;9.43;nan;101975.69;4933207;29;20988;-71
2022/04/17 01:29:59;;;;;;;0.20;0.20;;;8.90;65.80;;;9.36;nan;101973.38;4932418;29;20652;-69
2022/04/17 01:32:26;;;;;;;0.20;0.20;;;8.90;66.70;;;9.34;nan;101974.34;4942909;29;20700;-70
2022/04/17 01:34:53;;;;;;;0.30;0.30;;;8.80;67.10;;;9.32;nan;101966.59;4948855;29;20635;-71
2022/04/17 01:37:20;;;;;;;0.20;0.20;;;8.80;67.10;;;9.31;nan;101961.44;4948119;29;20636;-69
2022/04/17 01:39:47;;;;;;;0.20;0.20;;;8.70;67.40;;;9.34;nan;101974.34;4950635;29;21029;-71
2022/04/17 01:42:16;;;;;;;0.20;0.20;;;8.80;67.50;;;9.32;nan;101977.03;4949871;29;20678;-70
2022/04/17 01:44:44;;;;;;;0.20;0.20;;;8.80;67.60;;;9.31;nan;101969.25;4939274;28;20632;-70
2022/04/17 01:47:11;;;;;;;0.20;0.20;;;8.80;67.90;;;9.30;nan;101978.84;4945944;28;20651;-67
2022/04/17 01:49:38;;;;;;;0.20;0.20;;;8.80;68.10;;;9.14;nan;101970.03;4938734;29;20628;-69
2022/04/17 01:52:07;;;;;;;0.20;0.20;;;8.70;68.60;;;9.12;nan;101971.84;4967123;28;20655;-71
2022/04/17 01:54:35;;;;;;;0.20;0.20;;;8.60;69.10;;;9.09;nan;101976.38;4950288;28;20627;-71
2022/04/17 01:57:03;;;;;;;0.30;0.30;;;8.60;70.00;;;9.02;nan;101975.78;4948832;28;20635;-69
2022/04/17 01:59:30;;;;;;;0.50;0.50;;;8.50;69.60;;;8.94;nan;101974.44;4923188;29;20999;-69
2022/04/17 02:01:58;;;;;;;0.20;0.20;;;8.40;70.00;;;8.89;nan;101974.63;4940657;29;20973;-70
2022/04/17 02:04:27;;;;;;;0.20;0.20;;;8.40;70.10;;;8.88;nan;101980.75;4901975;29;21147;-70
2022/04/17 02:06:54;;;;;;;0.20;0.20;;;8.30;70.50;;;8.92;nan;101974.47;4945452;28;20639;-71
2022/04/17 02:09:21;;;;;;;0.20;0.20;;;8.40;70.60;;;8.94;nan;101969.22;4941798;28;20626;-70
2022/04/17 02:11:48;;;;;;;0.20;0.20;;;8.40;70.70;;;8.94;nan;101964.88;4959920;28;21267;-71
2022/04/17 02:14:15;;;;;;;0.20;0.20;;;8.40;70.90;;;8.92;nan;101963.25;4971075;28;21200;-70
2022/04/17 02:16:42;;;;;;;0.20;0.20;;;8.40;71.00;;;8.91;nan;101961.53;4960739;28;20642;-70
2022/04/17 02:19:09;;;;;;;0.20;0.20;;;8.40;71.20;;;8.93;nan;101957.97;4974057;28;20616;-70
2022/04/17 02:21:36;;;;;;;0.20;0.20;;;8.40;71.20;;;8.85;nan;101949.66;4963938;28;20683;-70
2022/04/17 02:24:05;;;;;;;0.30;0.30;;;8.40;72.00;;;8.85;nan;101957.47;4954966;28;20663;-70
2022/04/17 02:26:32;;;;;;;0.20;0.20;;;8.30;72.50;;;8.88;nan;101948.69;4954251;28;20651;-67
2022/04/17 02:29:00;;;;;;;0.20;0.20;;;8.40;72.40;;;8.87;nan;101946.97;4941192;28;20631;-69
2022/04/17 02:31:28;;;;;;;0.20;0.20;;;8.40;72.40;;;8.91;nan;101944.19;4952767;28;21028;-69
2022/04/17 02:33:56;;;;;;;0.20;0.20;;;8.40;72.80;;;8.91;nan;101944.19;4955086;28;20623;-71
2022/04/17 02:36:23;;;;;;;0.20;0.20;;;8.40;72.80;;;8.91;nan;101938.97;4947197;29;20636;-70
2022/04/17 02:38:50;;;;;;;0.30;0.30;;;8.40;72.80;;;8.84;nan;101934.94;4954822;29;20655;-70
2022/04/17 02:41:17;;;;;;;0.20;0.20;;;8.30;73.20;;;8.86;nan;101943.53;4961906;28;20667;-69
2022/04/17 02:43:44;;;;;;;0.20;0.20;;;8.40;73.40;;;8.84;nan;101940.16;4972138;28;21099;-71
2022/04/17 02:46:11;;;;;;;0.30;0.30;;;8.40;72.70;;;8.92;nan;101940.63;4952198;28;20642;-70
2022/04/17 02:48:38;;;;;;;0.20;0.20;;;8.40;72.00;;;8.93;nan;101933.69;4951150;28;22619;-70
2022/04/17 02:51:06;;;;;;;0.20;0.20;;;8.50;72.20;;;8.87;nan;101932.22;4971845;28;20689;-70
2022/04/17 02:53:34;;;;;;;0.30;0.30;;;8.40;72.20;;;8.82;nan;101934.16;4950002;28;20666;-69
2022/04/17 02:56:01;;;;;;;0.20;0.20;;;8.30;72.60;;;8.83;nan;101935.88;4960611;28;21012;-71
2022/04/17 02:58:28;;;;;;;0.23;0.23;;;8.30;73.10;;;8.81;nan;101937.69;4969656;28;20639;-70
2022/04/17 03:06:26;;;;;;;0.30;0.30;;;8.30;74.60;;;8.76;nan;101952.66;4958237;28;20615;-69
2022/04/17 03:08:54;;;;;;;0.20;0.20;;;8.20;74.90;;;8.75;nan;101945.78;4949082;29;21204;-70
2022/04/17 03:11:21;;;;;;;0.20;0.20;;;8.20;76.00;;;8.77;nan;101945.69;4970094;28;20666;-70
2022/04/17 03:13:48;;;;;;;0.20;0.20;;;8.30;77.80;;;8.77;nan;101943.09;4954013;28;21053;-70
2022/04/17 03:16:16;;;;;;;0.20;0.20;;;8.20;78.50;;;8.76;nan;101951.81;4970119;28;20651;-69
2022/04/17 03:18:43;;;;;;;0.20;0.20;;;8.20;78.70;;;8.76;nan;101949.19;4952291;28;20615;-70
2022/04/17 03:21:11;;;;;;;0.20;0.20;;;8.30;79.40;;;8.73;nan;101949.34;4954962;28;20667;-70
2022/04/17 03:23:38;;;;;;;0.20;0.20;;;8.30;80.80;;;8.71;nan;101951.19;4968671;28;20714;-70
2022/04/17 03:26:05;;;;;;;0.30;0.30;;;8.20;82.40;;;8.70;nan;101944.25;4971053;28;20639;-70
2022/04/17 03:28:33;;;;;;;0.20;0.20;;;8.20;84.20;;;8.67;nan;101944.41;4970762;28;20628;-70
2022/04/17 03:31:00;;;;;;;0.30;0.30;;;8.20;85.60;;;8.65;nan;101949.66;4962734;28;20671;-70
2022/04/17 03:33:28;;;;;;;0.20;0.20;;;8.10;86.80;;;8.60;nan;101946.44;4966222;28;21020;-68
2022/04/17 03:35:56;;;;;;;0.57;0.57;;;8.10;87.60;;;8.54;nan;101942.31;4971259;28;20623;-69
2022/04/17 03:38:23;;;;;;;0.20;0.20;;;8.10;87.60;;;8.55;nan;101940.56;4950312;29;20643;-70
2022/04/17 03:40:50;;;;;;;0.20;0.20;;;8.00;87.40;;;8.51;nan;101937.25;4927053;28;21286;-70
2022/04/17 03:43:17;;;;;;;0.20;0.20;;;8.00;87.90;;;8.48;nan;101934.78;4970461;28;21031;-70
2022/04/17 03:45:47;;;;;;;0.20;0.20;;;8.00;88.50;;;8.45;nan;101934.91;4968389;28;20646;-70
2022/04/17 03:48:16;;;;;;;0.20;0.20;;;8.00;88.80;;;8.40;nan;101930.81;4970692;28;20623;-69
2022/04/17 03:50:45;;;;;;;0.20;0.20;;;7.90;88.40;;;8.40;nan;101921.25;4937719;28;21033;-70
2022/04/17 03:53:12;;;;;;;0.30;0.30;;;7.90;88.30;;;8.34;nan;101918.94;4969506;28;20642;-71
2022/04/17 03:55:39;;;;;;;0.20;0.20;;;7.90;88.50;;;8.35;nan;101910.19;4949044;28;20616;-70
2022/04/17 03:58:06;;;;;;;0.30;0.30;;;7.90;88.50;;;8.35;nan;101910.19;4970645;28;20684;-70
2022/04/17 04:00:34;;;;;;;0.20;0.20;;;7.90;88.50;;;8.27;nan;101908.84;4969570;28;21263;-70
2022/04/17 04:03:03;;;;;;;0.20;0.20;;;7.80;88.60;;;8.34;nan;101910.28;4968896;28;20674;-70
2022/04/17 04:05:31;;;;;;;0.20;0.20;;;7.90;87.80;;;8.34;nan;101913.06;4935153;28;20635;-69
2022/04/17 04:07:58;;;;;;;0.20;0.20;;;7.90;87.90;;;8.21;nan;101909.06;4964905;28;20639;-71
2022/04/17 04:10:25;;;;;;;0.30;0.30;;;7.70;88.10;;;8.19;nan;101905.69;4971234;28;20702;-69
2022/04/17 04:12:52;;;;;;;0.20;0.20;;;7.70;89.70;;;8.16;nan;101903.19;4971570;28;21192;-71
2022/04/17 04:15:19;;;;;;;0.20;0.20;;;7.70;89.90;;;8.13;nan;101906.81;4950754;29;20641;-70
2022/04/17 04:17:46;;;;;;;0.20;0.20;;;7.70;90.10;;;8.13;nan;101908.53;4965214;28;20643;-70
2022/04/17 04:20:13;;;;;;;0.20;0.20;;;7.70;90.30;;;8.13;nan;101901.59;4954113;28;20633;-69
2022/04/17 04:22:40;;;;;;;0.20;0.20;;;7.60;90.50;;;8.15;nan;101898.94;4961248;28;20667;-70
2022/04/17 04:25:08;;;;;;;0.20;0.20;;;7.70;90.80;;;8.09;nan;101912.19;4964143;28;20611;-66
2022/04/17 04:30:21;;;;;;;0.20;0.20;;;7.60;91.00;;;8.04;nan;101903.72;4971334;28;20726;-69
2022/04/17 04:32:53;;;;;;;0.20;0.20;;;7.60;91.50;;;8.06;nan;101907.09;4971157;28;20638;-69
2022/04/17 04:35:21;;;;;;;0.30;0.30;;;7.60;91.70;;;8.06;nan;101907.09;4962968;28;20643;-69
2022/04/17 04:37:48;;;;;;;0.20;0.20;;;7.60;91.90;;;8.03;nan;101912.44;4952050;29;20600;-70
2022/04/17 04:40:16;;;;;;;0.20;0.20;;;7.60;92.40;;;8.01;nan;101906.47;4949379;28;20642;-69
2022/04/17 04:42:43;;;;;;;0.20;0.20;;;7.60;92.40;;;8.02;nan;104498.63;4970727;28;20642;-71
2022/04/17 04:47:56;;;;;;;0.20;0.20;;;7.60;92.80;;;8.13;nan;101924.16;4958477;28;20639;-70
2022/04/17 04:50:23;;;;;;;0.20;0.20;;;7.70;93.40;;;8.24;nan;101927.16;4964515;28;20743;-70
2022/04/17 04:52:50;;;;;;;0.20;0.20;;;7.70;93.70;;;8.20;nan;101933.38;4966295;28;20655;-69
2022/04/17 04:55:17;;;;;;;0.20;0.20;;;7.70;93.90;;;8.37;nan;101926.59;4968406;28;20635;-69
2022/04/17 04:57:44;;;;;;;0.20;0.20;;;7.90;93.00;;;8.48;nan;101928.72;4958239;28;20716;-70
2022/04/17 05:00:13;;;;;;;0.20;0.20;;;8.00;93.00;;;8.48;nan;101928.72;4948144;28;20993;-70
2022/04/17 05:02:41;;;;;;;0.30;0.30;;;8.10;92.50;;;8.83;nan;101922.84;4950435;28;20635;-70
2022/04/17 05:05:09;;;;;;;0.20;0.20;;;8.40;91.90;;;9.00;nan;101925.56;4969130;28;20595;-65
2022/04/17 05:07:37;;;;;;;0.30;0.30;;;8.60;91.20;;;9.24;nan;101927.03;4946702;28;20631;-70
2022/04/17 05:10:08;;;;;;;0.20;0.20;;;8.80;90.70;;;9.31;nan;101930.19;4944729;29;20640;-70
2022/04/17 05:12:37;;;;;;;0.20;0.20;;;9.10;90.30;;;9.74;nan;101926.41;4968237;28;20635;-69
2022/04/17 05:15:05;;;;;;;0.20;0.20;;;9.50;88.20;;;10.00;nan;101923.41;4949984;28;20638;-70
2022/04/17 05:17:32;;;;;;;0.20;0.20;;;9.80;86.10;;;10.27;nan;101918.59;4953328;28;20616;-70
2022/04/17 05:19:58;;;;;;;0.30;0.30;;;10.10;84.60;;;10.64;nan;101919.25;4960688;28;21080;-70
2022/04/17 05:22:31;;;;;;;0.20;0.20;;;10.50;83.00;;;11.03;nan;101923.31;4953354;28;20644;-71
2022/04/17 05:24:58;;;;;;;0.23;0.20;;;11.00;80.70;;;11.37;nan;101925.78;4969880;28;20675;-70
2022/04/17 05:27:27;;;;;;;0.23;0.20;;;11.40;78.50;;;11.73;nan;101925.56;4939213;29;20648;-70
2022/04/17 05:29:54;;;;;;;0.30;0.20;;;11.90;76.20;;;11.97;nan;101930.22;4934078;29;21204;-70
2022/04/17 05:32:21;;;;;;;0.30;0.30;;;12.20;73.80;;;12.18;nan;66095.06;4951610;28;20663;-70
2022/04/17 05:34:48;;;;;;;0.30;0.20;;;12.50;72.30;;;12.46;nan;101921.19;4945772;28;20654;-70
2022/04/17 05:37:15;;;;;;;0.30;0.20;;;12.90;70.50;;;12.71;nan;101927.59;4948338;28;20619;-70
2022/04/17 05:39:42;;;;;;;0.30;0.30;;;13.30;68.70;;;12.71;nan;101927.59;4967726;28;20611;-70
2022/04/17 05:42:10;;;;;;;0.30;0.20;;;13.90;67.10;;;13.48;nan;101928.03;4971080;28;20671;-70
2022/04/17 05:44:42;;;;;;;0.30;0.20;;;14.30;65.80;;;13.92;nan;101929.47;4953995;28;20661;-71
2022/04/17 05:47:09;;;;;;;0.30;0.30;;;14.90;64.00;;;14.56;nan;101922.59;4967618;28;20631;-68
2022/04/17 05:49:37;;;;;;;0.30;0.30;;;15.70;62.20;;;14.95;nan;101929.50;4974226;28;20948;-70
2022/04/17 05:52:04;;;;;;;0.30;0.20;;;16.30;60.60;;;15.57;100.00;101944.31;4973650;28;20682;-66
2022/04/17 05:54:31;;;;;;;0.30;0.30;;;17.00;58.60;;;16.04;nan;101940.84;4957341;28;21192;-69
2022/04/17 05:56:59;;;;;;;0.30;0.30;;;17.70;56.10;;;16.20;nan;101936.13;4961920;28;20639;-72
2022/04/17 05:59:26;;;;;;;0.30;0.30;;;18.20;54.30;;;16.32;nan;101935.19;4972480;28;21072;-70
2022/04/17 06:01:53;;;;;;;0.30;0.30;;;18.50;52.40;;;16.82;nan;101928.75;4972907;28;20651;-70
2022/04/17 06:04:20;;;;;;;0.30;0.30;;;18.90;51.30;;;17.50;nan;101936.50;4940292;29;20678;-71
2022/04/17 06:06:47;;;;;;;0.30;0.30;;;19.70;49.70;;;18.06;nan;101930.06;4969675;28;21005;-70
2022/04/17 06:09:14;;;;;;;0.30;0.30;;;20.20;48.30;;;18.52;nan;101927.94;4972259;28;20703;-66
2022/04/17 06:11:41;;;;;;;0.30;0.30;;;20.90;46.60;;;18.45;nan;101939.13;4962685;28;21089;-70
2022/04/17 06:14:08;;;;;;;0.30;0.30;;;21.20;45.50;;;18.72;nan;101928.84;4957865;28;21211;-68
2022/04/17 06:16:35;;;;;;;0.30;0.30;;;21.30;45.10;;;19.64;nan;101928.63;4961267;28;20646;-70
2022/04/17 06:19:02;;;;;;;0.30;0.30;;;22.00;44.40;;;19.55;nan;101941.88;4956045;28;20631;-69
2022/04/17 06:21:29;;;;;;;0.30;0.30;;;22.40;42.50;;;20.15;nan;101931.03;4967021;28;20667;-70
2022/04/17 06:23:56;;;;;;;0.30;0.30;;;22.40;42.70;;;20.92;nan;101939.66;4956155;28;21262;-70
2022/04/17 06:26:23;;;;;;;0.30;0.30;;;23.20;42.00;;;20.43;nan;101930.19;4940583;28;21103;-70
2022/04/17 06:28:50;;;;;;;0.30;0.30;;;23.60;40.60;;;21.62;nan;101929.25;4954662;28;21046;-68
2022/04/17 06:31:17;;;;;;;0.30;0.30;;;24.30;40.50;;;22.23;nan;101931.19;4962407;28;20667;-71
2022/04/17 06:33:44;;;;;;;0.30;0.30;;;25.00;39.20;;;23.26;nan;101926.63;4962238;28;20700;-70
2022/04/17 06:36:11;;;;;;;0.30;0.30;;;25.90;38.60;;;23.02;nan;101930.03;4962047;28;20619;-72
2022/04/17 06:38:38;;;;;;;0.30;0.30;;;26.30;37.50;;;23.54;nan;101930.75;4972084;28;20654;-70
2022/04/17 06:41:05;;;;;;;0.30;0.30;;;26.70;37.10;;;24.33;nan;101928.31;4958748;28;20671;-71
2022/04/17 06:43:32;;;;;;;0.30;0.30;;;27.40;36.60;;;24.99;nan;101921.84;4945723;29;20675;-71
2022/04/17 06:45:59;;;;;;;0.60;0.60;;;28.00;36.20;;;25.60;nan;101929.09;4955288;28;20636;-69
2022/04/17 06:48:26;;;;;;;0.40;0.40;;;28.80;35.10;;;26.11;nan;101926.53;4964721;28;20815;-71
2022/04/17 06:50:54;;;;;;;0.30;0.30;;;29.10;35.50;;;26.27;nan;101927.41;4964409;23;20700;-66
2022/04/17 06:53:22;;;;;;;0.30;0.30;;;29.70;35.60;;;26.63;nan;101910.50;4990760;28;21051;-66
2022/04/17 06:55:49;;;;;;;0.40;0.40;;;30.00;35.30;;;27.28;nan;101918.56;4991615;28;20646;-65
2022/04/17 06:58:20;;;;;;;0.30;0.30;;;30.80;34.50;;;28.05;nan;101910.75;4990191;28;20989;-65
2022/04/17 07:00:48;;;;;;;0.30;0.30;;;31.40;34.40;;;28.00;nan;101907.84;4989702;28;20650;-65
2022/04/17 07:03:16;;;;;;;0.30;0.30;;;31.70;34.00;;;28.30;nan;101909.31;4991380;28;20703;-65
2022/04/17 07:05:43;;;;;;;2.73;1.00;;;31.80;34.00;;;29.31;nan;101914.03;4991624;28;20630;-66
2022/04/17 07:08:11;;;;;;;0.37;0.37;;;32.60;33.00;;;29.34;nan;101906.41;4990259;28;20630;-65
2022/04/17 07:10:39;;;;;;;0.50;0.47;;;32.80;33.60;;;29.72;nan;101912.06;4991120;28;21211;-65
2022/04/17 07:13:18;;;;;;;0.30;0.30;;;32.80;33.00;;;29.56;nan;101912.47;4991586;28;20646;-65
2022/04/17 07:15:45;;;;;;;0.30;0.30;;;32.60;32.90;;;29.80;nan;101914.59;4989942;28;21052;-65
2022/04/17 07:18:12;;;;;;;0.40;0.30;;;32.60;33.00;;;29.51;nan;101905.00;4991556;28;20634;-65
2022/04/17 07:20:40;;;;;;;0.30;0.30;;;32.20;33.10;;;28.95;nan;101892.78;4999088;28;20629;-65
2022/04/17 07:23:07;;;;;;;0.30;0.30;;;31.80;33.10;;;29.19;nan;101891.47;4990124;28;20747;-65
2022/04/17 07:25:36;;;;;;;0.30;0.30;;;31.10;33.80;;;29.22;nan;101883.00;4991250;28;20658;-65
2022/04/17 07:28:04;;;;;;;2.53;0.90;;;31.20;33.70;;;28.64;nan;101885.22;4990239;28;20646;-65
2022/04/17 07:30:33;;;;;;;0.30;0.30;;;30.80;33.30;;;28.42;nan;101888.94;4970592;28;21000;-64
2022/04/17 07:33:01;;;;;;;0.30;0.30;;;30.60;32.90;;;27.56;nan;101890.06;4989492;28;21230;-65
2022/04/17 07:35:29;;;;;;;0.93;0.93;;;29.50;32.50;;;26.25;nan;101875.94;4991194;28;20629;-65
2022/04/17 07:38:04;;;;;;;0.40;0.30;;;28.70;32.60;;;26.80;nan;101882.53;4990702;28;20634;-65
2022/04/17 07:40:34;;;;;;;0.30;0.30;;;28.50;33.30;;;26.37;nan;101880.66;4990933;28;20645;-65
2022/04/17 07:43:05;;;;;;;0.50;0.50;;;28.00;34.50;;;26.94;nan;101874.69;4997605;28;20649;-65
2022/04/17 07:45:33;;;;;;;0.30;0.30;;;28.10;33.20;;;26.47;nan;101885.75;4991509;28;20665;-65
2022/04/17 07:48:01;;;;;;;0.30;0.30;;;27.70;32.50;;;25.82;nan;101877.47;4987565;28;20672;-65
2022/04/17 07:50:31;;;;;;;0.40;0.40;;;26.90;32.80;;;24.88;nan;101863.47;5009864;28;20630;-65
2022/04/17 07:52:59;;;;;;;0.40;0.40;;;26.10;33.00;;;25.17;nan;101869.03;4989006;28;21257;-65
2022/04/17 07:55:27;;;;;;;0.30;0.30;;;25.90;33.40;;;25.53;nan;101859.47;4990831;28;20634;-64
2022/04/17 07:58:06;;;;;;;0.30;0.30;;;26.00;33.20;;;23.60;nan;101855.47;4968835;28;20647;-67
2022/04/17 08:00:45;;;;;;;0.30;0.30;;;25.80;33.30;;;24.61;nan;101844.22;4973292;28;20632;-67
2022/04/17 08:06:00;;;;;;;0.30;0.30;;;25.70;34.30;;;25.47;nan;101843.31;4989548;28;20661;-67
2022/04/17 08:08:28;;;;;;;0.30;0.30;;;26.30;33.50;;;26.06;nan;101848.66;4984796;28;20643;-66
2022/04/17 08:10:55;;;;;;;0.60;0.60;;;26.80;33.50;;;25.03;nan;101840.38;4987404;28;20651;-67
2022/04/17 08:13:22;;;;;;;0.30;0.30;;;26.80;33.10;;;24.79;nan;101832.50;4979797;28;20643;-66
2022/04/17 08:15:50;;;;;;;0.30;0.30;;;26.00;33.00;;;24.59;nan;101830.22;4971224;28;20624;-68
2022/04/17 08:18:18;;;;;;;2.00;0.87;;;25.70;33.20;;;25.39;nan;101825.47;4998110;28;20630;-67
2022/04/17 08:20:45;;;;;;;0.40;0.40;;;26.20;33.40;;;24.01;nan;101819.00;4989712;28;20651;-67
2022/04/17 08:23:12;;;;;;;0.30;0.30;;;26.00;33.10;;;23.72;nan;101826.69;4990412;28;20631;-67
2022/04/17 08:25:39;;;;;;;0.30;0.30;;;25.50;33.40;;;25.05;nan;101827.69;4984557;28;20678;-67
2022/04/17 08:28:06;;;;;;;0.30;0.30;;;26.10;33.10;;;26.89;nan;101824.34;4971731;28;20619;-67
2022/04/17 08:30:34;;;;;;;0.40;0.40;;;27.60;32.60;;;28.21;nan;101822.75;4983293;28;20648;-67
2022/04/17 08:33:05;;;;;;;0.30;0.30;;;29.10;31.90;;;27.53;nan;101841.34;4987641;28;20642;-67
2022/04/17 08:35:33;;;;;;;0.30;0.30;;;29.70;30.70;;;28.13;nan;101835.50;4969946;28;20623;-67
2022/04/17 08:38:03;;;;;;;0.30;0.30;;;29.70;30.80;;;29.37;nan;101830.69;4974450;28;20642;-67
2022/04/17 08:40:31;;;;;;;0.30;0.30;;;31.00;30.30;;;30.72;nan;101825.63;4991666;28;20645;-67
2022/04/17 08:42:59;;;;;;;0.30;0.30;;;32.30;30.10;;;29.50;nan;101824.50;4968384;28;20635;-68
2022/04/17 08:45:27;;;;;;;0.40;0.40;;;32.80;29.50;;;29.52;nan;101825.13;4987886;28;20838;-68
2022/04/17 08:47:55;;;;;;;1.00;1.00;;;32.20;29.60;;;29.67;nan;101818.53;4988809;28;21209;-67
2022/04/17 08:50:23;;;;;;;0.30;0.30;;;32.80;29.30;;;30.17;nan;101816.25;4986904;28;20642;-67
2022/04/17 08:52:52;;;;;;;0.40;0.40;;;33.30;29.30;;;29.65;nan;101806.31;4990067;28;20634;-67
2022/04/17 08:55:20;;;;;;;0.30;0.30;;;33.00;29.30;;;28.91;nan;101800.19;4988792;28;20654;-67
2022/04/17 08:57:48;;;;;;;0.30;0.30;;;33.00;29.00;;;30.64;nan;101800.56;4988914;28;21245;-67
2022/04/17 09:00:17;;;;;;;0.30;0.30;;;34.00;28.80;;;32.05;nan;101796.56;4988224;28;20649;-65
2022/04/17 09:02:46;;;;;;;0.30;0.30;;;35.60;28.50;;;33.08;nan;101797.38;4988758;28;20681;-67
2022/04/17 09:05:19;;;;;;;0.40;0.40;;;36.60;28.20;;;33.40;nan;101801.47;4986969;28;20683;-68
2022/04/17 09:07:49;;;;;;;0.40;0.40;;;37.60;28.00;;;33.61;nan;101801.78;4985861;28;20634;-66
2022/04/17 09:10:31;;;;;;;0.40;0.40;;;37.90;27.60;;;33.69;nan;101797.06;4988943;28;20634;-67
2022/04/17 09:13:00;;;;;;;0.40;0.40;;;37.40;27.60;;;35.63;nan;101795.91;4990764;28;20626;-66
2022/04/17 09:15:36;;;;;;;0.40;0.40;;;39.00;27.70;;;35.45;nan;101795.31;4989656;28;21188;-67
2022/04/17 09:18:08;;;;;;;0.40;0.40;;;40.00;27.00;;;36.02;nan;101793.25;4999670;28;20645;-66
2022/04/17 09:20:49;;;;;;;0.40;0.40;;;40.30;26.70;;;37.04;nan;101786.91;5000849;28;20640;-67
2022/04/17 09:23:40;;;;;;;1.80;1.50;;;41.10;26.70;;;38.15;nan;101779.56;4995032;28;21001;-66
2022/04/17 09:26:08;;;;;;;0.43;0.43;;;42.20;26.80;;;37.52;nan;101779.72;4994079;28;20680;-65
2022/04/17 09:28:37;;;;;;;0.40;0.40;;;42.20;26.30;;;37.57;nan;101780.56;4992210;28;20627;-67
2022/04/17 09:31:11;;;;;;;0.40;0.40;;;42.10;26.20;;;36.22;nan;101783.47;4992495;28;20670;-67
2022/04/17 09:33:49;;;;;;;0.60;0.60;;;42.20;25.90;;;37.96;nan;101772.94;4993479;28;21179;-66
2022/04/17 09:36:16;;;;;;;0.40;0.40;;;42.50;26.00;;;31.84;nan;101759.94;4994508;28;20695;-67
2022/04/17 09:38:47;;;;;;;0.40;0.40;;;41.00;25.70;;;30.30;nan;101760.53;4993999;28;20622;-66
2022/04/17 09:41:14;;;;;;;0.40;0.40;;;37.50;26.10;;;31.50;nan;101749.69;4992606;28;20654;-66
2022/04/17 09:43:43;;;;;;;0.40;0.40;;;36.90;26.50;;;33.26;nan;101751.34;4975307;28;21190;-67
2022/04/17 09:46:11;;;;;;;0.40;0.40;;;37.20;26.70;;;34.82;nan;101752.94;4992572;28;20669;-65
2022/04/17 09:48:44;;;;;;;0.40;0.40;;;38.90;26.70;;;36.03;nan;101754.16;4977495;28;20633;-64
2022/04/17 09:51:26;;;;;;;0.40;0.40;;;39.80;26.50;;;33.71;nan;101751.66;4997621;28;20674;-61
2022/04/17 09:54:03;;;;;;;0.50;0.50;;;38.90;26.20;;;35.12;nan;101755.41;4988863;28;21217;-65
2022/04/17 09:56:43;;;;;;;0.40;0.40;;;39.00;26.60;;;34.43;nan;101745.66;4992237;28;20634;-65
2022/04/17 09:59:20;;;;;;;0.40;0.40;;;39.10;26.60;;;37.13;nan;101739.09;4982082;28;20630;-65
2022/04/17 10:01:50;;;;;;;0.40;0.40;;;40.10;26.60;;;36.11;nan;101734.69;4976514;28;21255;-65
2022/04/17 10:04:20;;;;;;;0.40;0.40;;;40.80;26.10;;;35.98;nan;101746.75;4983645;28;20683;-65
2022/04/17 10:06:53;;;;;;;0.40;0.40;;;40.40;26.20;;;37.96;nan;101743.78;4993856;28;20630;-64
2022/04/17 10:09:21;;;;;;;0.40;0.40;;;41.40;26.20;;;37.20;nan;101714.38;4988314;28;21191;-66
2022/04/17 10:11:51;;;;;;;0.50;0.50;;;41.40;26.20;;;36.98;nan;101729.97;4990323;28;20693;-66
2022/04/17 10:14:19;;;;;;;0.40;0.40;;;41.00;26.10;;;35.65;nan;101715.03;4988720;28;20634;-66
2022/04/17 10:16:48;;;;;;;0.40;0.40;;;40.40;25.80;;;34.38;nan;101699.50;4984020;28;20630;-67
2022/04/17 10:19:19;;;;;;;0.40;0.40;;;39.30;25.90;;;32.38;nan;101704.31;4985878;28;20630;-66
2022/04/17 10:21:47;;;;;;;0.40;0.40;;;38.30;26.20;;;33.91;nan;101687.09;4991513;28;20669;-66
2022/04/17 10:24:23;;;;;;;0.40;0.40;;;38.20;26.20;;;31.44;nan;101683.16;4990483;28;20635;-66
2022/04/17 10:26:53;;;;;;;0.40;0.40;;;37.30;26.30;;;32.60;nan;101689.31;4992115;28;20641;-66
2022/04/17 10:29:40;;;;;;;0.40;0.30;;;36.30;27.10;;;31.70;nan;101679.34;4980799;28;20635;-67
2022/04/17 10:32:32;;;;;;;0.40;0.30;;;35.30;27.30;;;28.84;nan;101676.56;4989336;28;20669;-66
2022/04/17 10:35:30;;;;;;;0.40;0.30;;;32.50;28.00;;;27.55;nan;101668.56;4989244;28;20630;-66
2022/04/17 10:38:25;;;;;;;0.40;0.30;;;29.40;28.60;;;25.58;nan;101642.44;4992828;28;21203;-65
2022/04/17 10:41:02;;;;;;;0.40;0.30;;;27.40;29.60;;;24.74;nan;101639.97;4992202;28;20665;-66
2022/04/17 10:43:57;;;;;;;0.43;0.40;;;25.70;30.80;;;22.98;nan;101633.22;4987677;28;20634;-65
2022/04/17 10:46:25;;;;;;;0.40;0.30;;;23.80;32.10;;;22.80;nan;101632.56;4985865;28;20666;-67
2022/04/17 10:48:58;;;;;;;0.40;0.30;;;23.00;34.00;;;22.65;nan;101622.72;4988714;28;20650;-66
2022/04/17 10:51:30;;;;;;;0.40;0.30;;;22.50;34.30;;;21.80;nan;101630.88;4984670;28;20669;-66
2022/04/17 10:54:06;;;;;;;0.40;0.40;;;21.90;34.20;;;21.29;nan;101619.31;4988772;28;20648;-66
2022/04/17 10:56:42;;;;;;;0.40;0.30;;;21.10;35.80;;;20.47;nan;101618.72;4988883;28;20986;-65